createdAt,value
2023-05-17T00:02:41.819Z,92.47
2023-05-17T00:05:45.465Z,92.26
2023-05-17T00:08:48.888Z,92.40
2023-05-17T00:11:52.557Z,92.26
2023-05-17T00:14:57.038Z,91.90
2023-05-17T00:18:03.099Z,92.13
2023-05-17T00:21:07.181Z,92.27
2023-05-17T00:24:11.649Z,92.03
2023-05-17T00:27:15.702Z,92.58
2023-05-17T00:30:19.523Z,92.20
2023-05-17T00:33:24.538Z,92.03
2023-05-17T00:36:29.860Z,91.87
2023-05-17T00:39:33.435Z,91.75
2023-05-17T00:42:36.936Z,91.98
2023-05-17T00:45:40.674Z,92.59
2023-05-17T00:48:47.144Z,92.57
2023-05-17T00:51:52.571Z,92.58
2023-05-17T00:54:56.243Z,92.21
2023-05-17T00:58:00.386Z,91.77
2023-05-17T01:01:06.285Z,91.97
2023-05-17T01:04:11.610Z,92.33
2023-05-17T01:07:17.704Z,92.17
2023-05-17T01:10:28.025Z,91.82
2023-05-17T01:13:37.570Z,92.45
2023-05-17T01:16:45.805Z,92.20
2023-05-17T01:20:06.419Z,92.49
2023-05-17T01:23:29.100Z,92.12
2023-05-17T01:26:47.880Z,91.82
2023-05-17T01:29:55.611Z,91.91
2023-05-17T01:33:00.541Z,91.82
2023-05-17T01:36:04.849Z,91.43
2023-05-17T01:39:08.761Z,91.48
2023-05-17T01:42:24.654Z,91.27
2023-05-17T01:45:35.744Z,91.44
2023-05-17T01:48:45.537Z,91.50
2023-05-17T01:51:54.900Z,91.38
2023-05-17T01:55:10.731Z,91.42
2023-05-17T01:58:23.011Z,90.98
2023-05-17T02:01:30.268Z,91.46
2023-05-17T02:04:34.197Z,91.22
2023-05-17T02:07:39.686Z,91.52
2023-05-17T02:10:43.391Z,91.28
2023-05-17T02:13:48.714Z,91.53
2023-05-17T02:16:52.480Z,91.41
2023-05-17T02:19:56.161Z,91.34
2023-05-17T02:22:59.787Z,91.79
2023-05-17T02:26:03.273Z,91.65
2023-05-17T02:29:08.233Z,91.71
2023-05-17T02:32:11.718Z,91.49
2023-05-17T02:35:15.437Z,92.01
2023-05-17T02:38:19.675Z,91.60
2023-05-17T02:41:23.364Z,91.65
2023-05-17T02:44:28.865Z,92.12
2023-05-17T02:47:32.505Z,91.96
2023-05-17T02:50:37.134Z,92.45
2023-05-17T02:53:40.517Z,92.51
2023-05-17T02:56:44.112Z,92.36
2023-05-17T02:59:49.551Z,92.02
2023-05-17T03:02:53.310Z,92.18
2023-05-17T03:05:56.885Z,92.20
2023-05-17T03:09:00.401Z,92.46
2023-05-17T03:12:04.772Z,91.97
2023-05-17T03:15:13.112Z,91.89
2023-05-17T03:18:16.923Z,92.35
2023-05-17T03:21:20.784Z,92.50
2023-05-17T03:24:25.351Z,91.99
2023-05-17T03:27:31.062Z,92.35
2023-05-17T03:30:36.952Z,92.13
2023-05-17T03:33:41.009Z,91.95
2023-05-17T03:36:44.687Z,92.33
2023-05-17T03:39:48.520Z,92.30
2023-05-17T03:42:52.205Z,92.13
2023-05-17T03:45:57.969Z,91.88
2023-05-17T03:49:01.673Z,92.05
2023-05-17T03:52:07.241Z,92.21
2023-05-17T03:55:11.241Z,92.02
2023-05-17T03:58:14.863Z,92.32
2023-05-17T04:01:20.519Z,92.22
2023-05-17T04:04:27.025Z,92.33
2023-05-17T04:07:31.164Z,92.56
2023-05-17T04:10:35.026Z,92.47
2023-05-17T04:13:40.866Z,92.43
2023-05-17T04:16:45.945Z,91.98
2023-05-17T04:19:49.586Z,91.87
2023-05-17T04:22:53.197Z,92.18
2023-05-17T04:25:56.979Z,92.05
2023-05-17T04:29:01.664Z,92.33
2023-05-17T04:32:07.642Z,91.82
2023-05-17T04:35:11.345Z,91.65
2023-05-17T04:38:16.442Z,91.95
2023-05-17T04:41:20.647Z,91.61
2023-05-17T04:44:24.807Z,92.22
2023-05-17T04:47:30.090Z,91.95
2023-05-17T04:50:36.029Z,91.55
2023-05-17T04:53:40.716Z,91.37
2023-05-17T04:56:48.172Z,91.67
2023-05-17T05:00:00.214Z,90.87
2023-05-17T05:03:07.564Z,90.39
2023-05-17T05:06:12.874Z,90.30
2023-05-17T05:09:17.482Z,90.19
2023-05-17T05:12:21.676Z,89.67
2023-05-17T05:15:25.579Z,89.90
2023-05-17T05:18:34.762Z,89.70
2023-05-17T05:21:38.794Z,89.27
2023-05-17T05:24:44.231Z,88.96
2023-05-17T05:27:47.861Z,89.28
2023-05-17T05:30:51.609Z,89.37
2023-05-17T05:33:57.759Z,89.33
2023-05-17T05:37:01.487Z,89.71
2023-05-17T05:40:05.937Z,89.49
2023-05-17T05:43:09.724Z,89.27
2023-05-17T05:46:13.241Z,89.14
2023-05-17T05:49:20.434Z,88.85
2023-05-17T05:52:24.476Z,89.08
2023-05-17T05:55:28.243Z,89.77
2023-05-17T05:58:32.863Z,89.50
2023-05-17T06:01:37.753Z,89.17
2023-05-17T06:04:45.660Z,89.36
2023-05-17T06:07:49.628Z,89.68
2023-05-17T06:10:53.184Z,89.56
2023-05-17T06:13:56.776Z,89.96
2023-05-17T06:17:00.424Z,89.88
2023-05-17T06:20:06.100Z,89.87
2023-05-17T06:23:09.561Z,89.85
2023-05-17T06:26:13.014Z,90.06
2023-05-17T06:29:16.453Z,89.57
2023-05-17T06:32:19.913Z,89.98
2023-05-17T06:35:24.798Z,89.40
2023-05-17T06:38:28.310Z,89.64
2023-05-17T06:41:31.720Z,89.06
2023-05-17T06:44:35.182Z,88.46
2023-05-17T06:47:38.911Z,89.37
2023-05-17T06:50:43.955Z,88.88
2023-05-17T06:53:47.389Z,88.26
2023-05-17T06:56:50.865Z,87.73
2023-05-17T06:59:54.402Z,88.51
2023-05-17T07:02:58.464Z,88.35
2023-05-17T07:06:03.515Z,87.15
2023-05-17T07:09:07.476Z,85.93
2023-05-17T07:12:10.929Z,85.04
2023-05-17T07:15:14.638Z,85.13
2023-05-17T07:18:18.503Z,85.09
2023-05-17T07:21:24.231Z,84.34
2023-05-17T07:24:27.765Z,84.70
2023-05-17T07:27:31.267Z,84.52
2023-05-17T07:30:34.798Z,84.97
2023-05-17T07:33:41.541Z,84.44
2023-05-17T07:36:46.544Z,83.28
2023-05-17T07:39:50.064Z,83.05
2023-05-17T07:42:53.973Z,84.37
2023-05-17T07:45:58.123Z,83.86
2023-05-17T07:49:06.172Z,83.53
2023-05-17T07:52:11.608Z,82.86
2023-05-17T07:55:16.815Z,81.87
2023-05-17T07:58:20.570Z,81.72
2023-05-17T08:01:24.429Z,81.79
2023-05-17T08:04:28.348Z,82.64
2023-05-17T08:07:36.184Z,82.39
2023-05-17T08:10:40.038Z,81.24
2023-05-17T08:13:44.464Z,80.88
2023-05-17T08:16:48.623Z,80.93
2023-05-17T08:19:52.215Z,81.60
2023-05-17T08:22:59.440Z,81.02
2023-05-17T08:26:03.277Z,80.86
2023-05-17T08:29:06.871Z,80.40
2023-05-17T08:32:10.962Z,80.42
2023-05-17T08:35:14.648Z,80.12
2023-05-17T08:38:20.867Z,79.59
2023-05-17T08:41:24.689Z,79.81
2023-05-17T08:44:29.723Z,78.72
2023-05-17T08:47:36.609Z,79.94
2023-05-17T08:50:41.267Z,79.24
2023-05-17T08:53:47.615Z,79.05
2023-05-17T08:56:55.399Z,77.97
2023-05-17T09:00:04.384Z,78.53
2023-05-17T09:03:08.658Z,78.79
2023-05-17T09:06:14.715Z,79.01
2023-05-17T09:09:20.558Z,79.33
2023-05-17T09:12:25.748Z,77.49
2023-05-17T09:15:31.154Z,78.32
2023-05-17T09:18:34.860Z,78.87
2023-05-17T09:21:39.362Z,78.81
2023-05-17T09:24:44.742Z,79.09
2023-05-17T09:27:48.429Z,78.48
2023-05-17T09:30:52.034Z,78.89
2023-05-17T09:33:55.717Z,78.35
2023-05-17T09:36:59.393Z,79.11
2023-05-17T09:40:10.918Z,77.95
2023-05-17T09:43:15.189Z,77.93
2023-05-17T09:46:21.157Z,77.65
2023-05-17T09:49:29.444Z,76.09
2023-05-17T09:52:35.376Z,76.72
2023-05-17T09:55:40.286Z,76.76
2023-05-17T09:58:44.488Z,76.54
2023-05-17T10:01:50.624Z,75.00
2023-05-17T10:04:58.382Z,76.59
2023-05-17T10:08:02.559Z,75.30
2023-05-17T10:11:10.573Z,75.12
2023-05-17T10:14:23.216Z,75.90
2023-05-17T10:17:30.363Z,74.99
2023-05-17T10:20:34.725Z,75.39
2023-05-17T10:23:40.493Z,74.64
2023-05-17T10:26:46.435Z,75.87
2023-05-17T10:29:51.517Z,75.75
2023-05-17T10:32:55.707Z,75.72
2023-05-17T10:36:00.724Z,75.91
2023-05-17T10:39:04.704Z,75.36
2023-05-17T10:42:15.284Z,75.70
2023-05-17T10:45:23.123Z,74.97
2023-05-17T10:48:31.221Z,75.23
2023-05-17T10:51:42.779Z,74.98
2023-05-17T10:54:50.145Z,75.75
2023-05-17T10:58:20.664Z,75.32
2023-05-17T11:01:52.785Z,76.42
2023-05-17T11:04:58.023Z,75.47
2023-05-17T11:08:19.368Z,76.70
2023-05-17T11:11:22.753Z,77.30
2023-05-17T11:14:26.122Z,77.30
2023-05-17T11:17:38.147Z,76.31
2023-05-17T11:20:42.500Z,77.10
2023-05-17T11:23:49.209Z,76.82
2023-05-17T11:26:56.193Z,77.13
2023-05-17T11:30:00.419Z,76.95
2023-05-17T11:33:50.079Z,76.20
2023-05-17T11:41:48.426Z,76.57
2023-05-17T11:44:52.432Z,77.73
2023-05-17T11:47:56.250Z,77.08
2023-05-17T11:51:02.148Z,77.63
2023-05-17T11:54:08.573Z,77.45
2023-05-17T11:57:16.863Z,77.95
2023-05-17T12:00:28.618Z,77.30
2023-05-17T12:03:33.696Z,77.94
2023-05-17T12:06:37.381Z,77.52
2023-05-17T12:09:44.198Z,77.21
2023-05-17T12:12:52.553Z,77.70
2023-05-17T12:20:33.612Z,76.79
2023-05-17T12:23:39.797Z,77.94
2023-05-17T12:26:47.910Z,77.36
2023-05-17T12:29:52.876Z,77.78
2023-05-17T12:32:57.001Z,77.29
2023-05-17T12:36:01.582Z,76.24
2023-05-17T12:39:09.934Z,76.76
2023-05-17T12:42:13.496Z,76.46
2023-05-17T12:45:18.786Z,77.15
2023-05-17T12:48:27.224Z,76.71
2023-05-17T12:51:31.465Z,76.79
2023-05-17T12:54:35.288Z,74.86
2023-05-17T12:57:38.891Z,76.02
2023-05-17T13:00:58.601Z,75.50
2023-05-17T13:04:02.487Z,74.46
2023-05-17T13:07:07.204Z,74.52
2023-05-17T13:10:22.787Z,72.39
2023-05-17T13:13:34.556Z,72.74
2023-05-17T13:16:41.610Z,72.31
2023-05-17T13:19:46.134Z,72.53
2023-05-17T13:22:50.954Z,73.17
2023-05-17T13:25:55.170Z,72.56
2023-05-17T13:29:08.319Z,73.19
2023-05-17T13:32:15.831Z,73.22
2023-05-17T13:35:19.394Z,72.24
2023-05-17T13:38:22.973Z,72.00
2023-05-17T13:41:26.665Z,71.99
2023-05-17T13:44:30.415Z,71.72
2023-05-17T13:47:35.466Z,72.34
2023-05-17T13:50:39.382Z,71.85
2023-05-17T13:53:44.243Z,71.71
2023-05-17T13:56:47.822Z,72.11
2023-05-17T13:59:51.463Z,72.88
2023-05-17T14:02:56.391Z,71.61
2023-05-17T14:06:00.021Z,72.23
2023-05-17T14:09:04.260Z,71.21
2023-05-17T14:12:08.480Z,72.79
2023-05-17T14:15:27.322Z,71.17
2023-05-17T14:18:33.014Z,72.05
2023-05-17T14:21:36.628Z,71.27
2023-05-17T14:24:40.068Z,71.00
2023-05-17T14:27:44.363Z,70.40
2023-05-17T14:30:48.213Z,71.54
2023-05-17T14:33:53.244Z,70.15
2023-05-17T14:36:56.857Z,70.88
2023-05-17T14:40:06.436Z,70.05
2023-05-17T14:43:12.736Z,71.26
2023-05-17T14:46:16.691Z,71.10
2023-05-17T14:50:30.199Z,72.79
2023-05-17T14:53:33.248Z,73.65
2023-05-17T14:56:36.762Z,72.23
2023-05-17T14:59:42.065Z,71.91
2023-05-17T15:02:46.840Z,71.80
2023-05-17T15:05:56.092Z,72.29
2023-05-17T15:09:00.148Z,71.01
2023-05-17T15:12:04.215Z,72.19
2023-05-17T15:15:08.979Z,72.50
2023-05-17T15:18:13.812Z,71.81
2023-05-17T15:21:19.159Z,72.16
2023-05-17T15:24:25.686Z,71.87
2023-05-17T15:27:29.322Z,71.73
2023-05-17T15:30:33.450Z,72.63
2023-05-17T15:33:37.439Z,72.04
2023-05-17T15:36:42.473Z,70.85
2023-05-17T15:39:45.931Z,71.95
2023-05-17T15:42:49.690Z,71.12
2023-05-17T15:45:53.255Z,72.51
2023-05-17T15:48:58.157Z,71.34
2023-05-17T15:52:03.178Z,71.22
2023-05-17T15:55:07.621Z,71.63
2023-05-17T15:58:11.317Z,71.23
2023-05-17T16:01:17.432Z,71.86
2023-05-17T16:04:20.781Z,72.09
2023-05-17T16:07:26.372Z,72.27
2023-05-17T16:10:30.363Z,71.74
2023-05-17T16:13:34.142Z,71.86
2023-05-17T16:16:37.781Z,71.38
2023-05-17T16:19:41.492Z,71.94
2023-05-17T16:22:47.475Z,71.29
2023-05-17T16:25:51.607Z,71.43
2023-05-17T16:29:01.346Z,70.09
2023-05-17T16:32:05.136Z,71.03
2023-05-17T16:35:09.531Z,70.54
2023-05-17T16:38:14.464Z,71.90
2023-05-17T16:41:17.863Z,70.28
2023-05-17T16:44:21.486Z,71.27
2023-05-17T16:47:26.793Z,71.38
2023-05-17T16:50:30.662Z,72.00
2023-05-17T16:53:36.185Z,71.25
2023-05-17T16:56:40.136Z,72.47
2023-05-17T16:59:43.650Z,72.86
2023-05-17T17:02:47.302Z,71.96
2023-05-17T17:05:50.994Z,71.75
2023-05-17T17:08:59.055Z,71.83
2023-05-17T17:12:09.516Z,71.41
2023-05-17T17:15:16.314Z,71.97
2023-05-17T17:18:19.809Z,71.97
2023-05-17T17:21:23.235Z,72.61
2023-05-17T17:24:29.919Z,72.62
2023-05-17T17:27:33.581Z,72.25
2023-05-17T17:30:37.212Z,72.19
2023-05-17T17:33:40.864Z,72.33
2023-05-17T17:36:45.355Z,72.70
2023-05-17T17:39:50.881Z,72.70
2023-05-17T17:42:55.296Z,72.79
2023-05-17T17:45:58.864Z,73.15
2023-05-17T17:49:02.677Z,73.31
2023-05-17T17:52:09.937Z,72.94
2023-05-17T17:55:15.388Z,73.63
2023-05-17T17:58:19.112Z,73.67
2023-05-17T18:01:23.021Z,74.43
2023-05-17T18:04:27.228Z,74.02
2023-05-17T18:07:30.796Z,74.96
2023-05-17T18:10:35.865Z,74.78
2023-05-17T18:13:39.329Z,75.61
2023-05-17T18:16:42.985Z,75.12
2023-05-17T18:19:48.104Z,75.00
2023-05-17T18:22:52.207Z,75.04
2023-05-17T18:25:57.218Z,74.62
2023-05-17T18:29:02.507Z,74.59
2023-05-17T18:32:06.741Z,74.89
2023-05-17T18:35:10.687Z,75.13
2023-05-17T18:38:19.259Z,75.31
2023-05-17T18:41:24.582Z,75.28
2023-05-17T18:44:28.182Z,75.27
2023-05-17T18:47:31.826Z,75.41
2023-05-17T18:50:38.100Z,75.61
2023-05-17T18:53:41.568Z,76.43
2023-05-17T18:56:46.908Z,76.77
2023-05-17T18:59:50.291Z,76.80
2023-05-17T19:02:54.964Z,76.74
2023-05-17T19:05:58.630Z,77.05
2023-05-17T19:09:04.266Z,76.37
2023-05-17T19:12:10.056Z,76.84
2023-05-17T19:15:13.792Z,77.77
2023-05-17T19:18:17.506Z,79.11
2023-05-17T19:21:20.970Z,79.41
2023-05-17T19:24:24.408Z,79.64
2023-05-17T19:27:29.672Z,79.83
2023-05-17T19:30:33.762Z,79.82
2023-05-17T19:33:38.056Z,80.33
2023-05-17T19:36:41.659Z,79.86
2023-05-17T19:39:45.262Z,79.18
2023-05-17T19:42:50.764Z,79.34
2023-05-17T19:45:54.731Z,79.27
2023-05-17T19:48:58.664Z,79.37
2023-05-17T19:52:02.594Z,79.38
2023-05-17T19:55:06.650Z,79.13
2023-05-17T19:58:11.847Z,79.65
2023-05-17T20:01:15.661Z,79.39
2023-05-17T20:04:19.115Z,78.93
2023-05-17T20:07:26.020Z,78.60
2023-05-17T20:10:31.476Z,78.75
2023-05-17T20:13:40.579Z,78.35
2023-05-17T20:16:44.285Z,77.64
2023-05-17T20:19:47.898Z,77.16
2023-05-17T20:22:51.658Z,77.48
2023-05-17T20:25:55.608Z,76.40
2023-05-17T20:29:00.489Z,76.16
2023-05-17T20:32:04.266Z,75.40
2023-05-17T20:35:08.906Z,75.61
2023-05-17T20:38:12.850Z,75.78
2023-05-17T20:41:16.544Z,75.49
2023-05-17T20:44:22.018Z,75.12
2023-05-17T20:47:26.242Z,74.24
2023-05-17T20:50:30.184Z,74.31
2023-05-17T20:53:33.956Z,74.91
2023-05-17T20:56:39.089Z,74.87
2023-05-17T20:59:44.110Z,75.29
2023-05-17T21:02:47.764Z,75.91
2023-05-17T21:05:51.806Z,76.17
2023-05-17T21:08:55.368Z,75.62
2023-05-17T21:11:58.955Z,75.71
2023-05-17T21:15:16.524Z,74.78
2023-05-17T21:18:21.452Z,75.30
2023-05-17T21:21:25.182Z,75.36
2023-05-17T21:24:28.953Z,75.86
2023-05-17T21:27:33.831Z,77.16
2023-05-17T21:30:38.675Z,77.40
2023-05-17T21:33:42.167Z,76.58
2023-05-17T21:36:45.861Z,76.23
2023-05-17T21:39:49.628Z,75.82
2023-05-17T21:42:53.191Z,76.26
2023-05-17T21:45:58.115Z,76.03
2023-05-17T21:49:01.589Z,76.02
2023-05-17T21:52:05.578Z,75.89
2023-05-17T21:55:10.445Z,76.19
2023-05-17T21:58:16.371Z,76.40
2023-05-17T22:01:24.256Z,76.50
2023-05-17T22:04:28.169Z,75.92
2023-05-17T22:07:32.067Z,76.42
2023-05-17T22:10:35.707Z,76.02
2023-05-17T22:13:39.232Z,76.19
2023-05-17T22:16:46.232Z,77.64
2023-05-17T22:19:50.302Z,76.81
2023-05-17T22:22:54.206Z,75.56
2023-05-17T22:26:00.619Z,75.09
2023-05-17T22:29:04.707Z,74.36
2023-05-17T22:32:11.326Z,74.02
2023-05-17T22:35:15.141Z,73.43
2023-05-17T22:38:18.864Z,73.24
2023-05-17T22:41:22.635Z,73.48
2023-05-17T22:44:26.461Z,72.98
2023-05-17T22:47:32.110Z,72.13
2023-05-17T22:50:36.538Z,71.93
2023-05-17T22:53:39.966Z,72.58
2023-05-17T22:56:43.413Z,72.68
2023-05-17T22:59:46.868Z,72.74
2023-05-17T23:02:51.877Z,71.75
2023-05-17T23:06:02.604Z,70.99
2023-05-17T23:09:06.435Z,70.87
2023-05-17T23:12:14.372Z,70.73
2023-05-17T23:15:17.910Z,69.47
2023-05-17T23:18:23.019Z,69.74
2023-05-17T23:21:26.538Z,70.71
2023-05-17T23:24:30.255Z,70.26
2023-05-17T23:27:34.091Z,68.96
2023-05-17T23:30:38.730Z,69.18
2023-05-17T23:33:44.205Z,69.53
2023-05-17T23:36:47.664Z,70.55
2023-05-17T23:39:51.618Z,71.84
2023-05-17T23:42:55.233Z,71.15
2023-05-17T23:45:58.910Z,71.99
2023-05-17T23:49:04.639Z,71.13
2023-05-17T23:52:11.319Z,71.64
2023-05-17T23:55:14.912Z,72.21
2023-05-17T23:58:18.495Z,73.06
